createdAt,value
2023-05-22T00:01:39.093Z,101386.28
2023-05-22T00:04:05.677Z,101386.28
2023-05-22T00:06:34.077Z,101384.38
2023-05-22T00:09:00.809Z,101387.34
2023-05-22T00:11:27.465Z,101378.03
2023-05-22T00:13:54.088Z,101377.19
2023-05-22T00:16:20.803Z,101379.06
2023-05-22T00:18:47.543Z,101380.97
2023-05-22T00:21:14.338Z,101375.47
2023-05-22T00:23:41.546Z,101374.44
2023-05-22T00:26:08.109Z,101370.81
2023-05-22T00:28:34.714Z,101373.56
2023-05-22T00:31:01.236Z,101361.72
2023-05-22T00:33:27.827Z,101365.50
2023-05-22T00:35:54.395Z,101361.72
2023-05-22T00:38:32.818Z,101358.97
2023-05-22T00:41:04.917Z,101363.63
2023-05-22T00:43:32.147Z,101356.41
2023-05-22T00:45:59.215Z,101362.75
2023-05-22T00:48:26.498Z,101363.63
2023-05-22T00:50:57.220Z,101360.88
2023-05-22T00:53:25.312Z,101361.91
2023-05-22T00:55:54.437Z,101355.34
2023-05-22T00:58:21.915Z,101360.00
2023-05-22T01:00:48.753Z,101366.38
2023-05-22T01:03:16.127Z,101361.91
2023-05-22T01:05:43.606Z,101368.25
2023-05-22T01:08:11.087Z,101362.75
2023-05-22T01:10:40.059Z,101363.63
2023-05-22T01:13:23.339Z,101359.16
2023-05-22T01:16:22.066Z,101357.47
2023-05-22T01:19:10.026Z,101357.66
2023-05-22T01:21:36.656Z,101349.59
2023-05-22T01:24:31.329Z,101354.91
2023-05-22T01:27:17.004Z,101353.19
2023-05-22T01:30:11.143Z,101349.59
2023-05-22T01:32:38.553Z,101352.34
2023-05-22T01:35:10.768Z,101353.19
2023-05-22T01:37:39.074Z,101353.19
2023-05-22T01:40:07.643Z,101354.25
2023-05-22T01:42:34.708Z,101356.81
2023-05-22T01:45:01.260Z,101347.69
2023-05-22T01:47:27.940Z,101348.53
2023-05-22T01:49:54.751Z,101343.03
2023-05-22T01:52:37.149Z,101343.88
2023-05-22T01:55:17.511Z,101342.00
2023-05-22T01:57:53.591Z,101345.78
2023-05-22T02:00:22.369Z,101341.34
2023-05-22T02:03:01.353Z,101342.19
2023-05-22T02:05:29.741Z,101343.03
2023-05-22T02:08:00.905Z,101342.19
2023-05-22T02:10:29.444Z,101337.53
2023-05-22T02:12:56.484Z,101340.28
2023-05-22T02:15:23.352Z,101345.78
2023-05-22T02:17:49.967Z,101342.19
2023-05-22T02:20:16.926Z,101344.94
2023-05-22T02:22:46.012Z,101339.44
2023-05-22T02:25:16.993Z,101341.13
2023-05-22T02:27:45.920Z,101331.19
2023-05-22T02:30:13.490Z,101329.28
2023-05-22T02:32:42.032Z,101325.69
2023-05-22T02:35:09.157Z,101322.94
2023-05-22T02:37:36.130Z,101321.88
2023-05-22T02:40:06.136Z,101320.16
2023-05-22T02:42:33.061Z,101319.31
2023-05-22T02:45:00.883Z,101322.94
2023-05-22T02:47:27.492Z,101310.22
2023-05-22T02:49:54.170Z,101318.47
2023-05-22T02:52:22.484Z,101312.13
2023-05-22T02:54:49.031Z,101315.53
2023-05-22T02:57:15.853Z,101312.97
2023-05-22T02:59:42.579Z,101310.22
2023-05-22T03:02:09.132Z,101310.22
2023-05-22T03:04:38.528Z,101313.81
2023-05-22T03:07:07.325Z,101314.88
2023-05-22T03:09:33.929Z,101323.97
2023-05-22T03:12:01.178Z,101315.91
2023-05-22T03:14:29.155Z,101314.00
2023-05-22T03:16:56.209Z,101319.53
2023-05-22T03:19:23.459Z,101315.91
2023-05-22T03:21:50.156Z,101315.72
2023-05-22T03:24:16.993Z,101313.16
2023-05-22T03:26:43.946Z,101315.91
2023-05-22T03:29:17.164Z,101321.41
2023-05-22T03:31:44.024Z,101308.50
2023-05-22T03:34:13.889Z,101304.06
2023-05-22T03:36:43.198Z,101312.31
2023-05-22T03:39:09.864Z,101311.47
2023-05-22T03:41:41.246Z,101313.16
2023-05-22T03:44:07.979Z,101303.22
2023-05-22T03:46:34.699Z,101303.22
2023-05-22T03:49:01.288Z,101307.84
2023-05-22T03:51:27.811Z,101307.84
2023-05-22T03:53:54.371Z,101307.84
2023-05-22T03:56:21.257Z,101309.56
2023-05-22T03:58:50.139Z,101310.41
2023-05-22T04:01:16.978Z,101302.34
2023-05-22T04:03:43.908Z,101304.25
2023-05-22T04:06:10.923Z,101299.81
2023-05-22T04:08:39.336Z,101307.84
2023-05-22T04:11:05.963Z,101302.56
2023-05-22T04:13:33.131Z,101310.81
2023-05-22T04:16:02.029Z,101305.31
2023-05-22T04:18:28.918Z,101309.97
2023-05-22T04:20:57.467Z,101318.00
2023-05-22T04:23:24.067Z,101314.41
2023-05-22T04:25:50.676Z,101318.00
2023-05-22T04:28:22.447Z,101320.13
2023-05-22T04:30:49.501Z,101326.28
2023-05-22T04:33:18.220Z,101326.47
2023-05-22T04:35:44.973Z,101320.97
2023-05-22T04:38:11.505Z,101321.81
2023-05-22T04:40:38.552Z,101322.88
2023-05-22T04:43:05.446Z,101326.47
2023-05-22T04:45:32.929Z,101331.13
2023-05-22T04:48:02.724Z,101325.63
2023-05-22T04:50:33.310Z,101316.50
2023-05-22T04:53:00.035Z,101311.84
2023-05-22T04:55:26.832Z,101320.13
2023-05-22T04:57:53.638Z,101317.38
2023-05-22T05:00:22.529Z,101324.75
2023-05-22T05:02:49.233Z,101322.00
2023-05-22T05:05:15.940Z,101324.75
2023-05-22T05:07:43.634Z,101322.00
2023-05-22T05:10:10.444Z,101318.41
2023-05-22T05:12:37.236Z,101338.53
2023-05-22T05:15:04.133Z,101335.78
2023-05-22T05:17:30.869Z,101333.88
2023-05-22T05:19:57.438Z,101341.28
2023-05-22T05:22:24.261Z,101346.78
2023-05-22T05:24:50.980Z,101345.94
2023-05-22T05:27:17.597Z,101352.28
2023-05-22T05:29:44.626Z,101348.69
2023-05-22T05:32:22.076Z,101352.47
2023-05-22T05:34:53.431Z,101355.22
2023-05-22T05:37:24.232Z,101347.81
2023-05-22T05:39:52.319Z,101350.56
2023-05-22T05:42:19.891Z,101346.97
2023-05-22T05:44:48.175Z,101344.22
2023-05-22T05:47:14.807Z,101353.31
2023-05-22T05:49:41.748Z,101346.97
2023-05-22T05:52:08.684Z,101350.56
2023-05-22T05:54:36.199Z,101351.44
2023-05-22T05:57:10.103Z,101352.47
2023-05-22T05:59:37.055Z,101357.97
2023-05-22T06:02:22.536Z,101357.31
2023-05-22T06:04:53.867Z,101357.31
2023-05-22T06:07:20.986Z,101363.69
2023-05-22T06:09:50.885Z,101362.81
2023-05-22T06:12:22.734Z,101370.22
2023-05-22T06:14:49.543Z,101371.09
2023-05-22T06:17:16.760Z,101373.84
2023-05-22T06:19:44.615Z,101373.84
2023-05-22T06:22:12.068Z,101380.19
2023-05-22T06:24:41.173Z,101383.78
2023-05-22T06:27:13.208Z,101376.59
2023-05-22T06:29:40.149Z,101374.69
2023-05-22T06:32:09.445Z,101377.44
2023-05-22T06:34:38.197Z,101375.72
2023-05-22T06:37:05.831Z,101387.59
2023-05-22T06:39:37.865Z,101389.50
2023-05-22T06:42:13.468Z,101390.34
2023-05-22T06:44:58.676Z,101385.88
2023-05-22T06:47:34.227Z,101398.78
2023-05-22T06:50:01.258Z,101395.84
2023-05-22T06:52:27.948Z,101404.09
2023-05-22T06:54:55.180Z,101393.94
2023-05-22T06:57:24.052Z,101399.44
2023-05-22T06:59:51.253Z,101405.81
2023-05-22T07:02:36.635Z,101409.59
2023-05-22T07:05:12.442Z,101405.16
2023-05-22T07:07:51.582Z,101414.25
2023-05-22T07:10:18.225Z,101409.59
2023-05-22T07:12:45.802Z,101416.81
2023-05-22T07:15:14.409Z,101419.56
2023-05-22T07:17:46.512Z,101423.34
2023-05-22T07:20:15.819Z,101424.22
2023-05-22T07:22:47.567Z,101425.25
2023-05-22T07:25:14.198Z,101431.63
2023-05-22T07:27:41.163Z,101430.56
2023-05-22T07:30:08.628Z,101429.53
2023-05-22T07:32:36.640Z,101425.06
2023-05-22T07:35:04.700Z,101423.16
2023-05-22T07:37:33.044Z,101417.66
2023-05-22T07:39:59.613Z,101421.25
2023-05-22T07:42:27.295Z,101424.00
2023-05-22T07:44:55.058Z,101424.00
2023-05-22T07:47:22.368Z,101432.28
2023-05-22T07:49:50.178Z,101425.72
2023-05-22T07:52:17.796Z,101425.53
2023-05-22T07:54:45.609Z,101427.44
2023-05-22T07:57:13.480Z,101420.03
2023-05-22T07:59:44.177Z,101424.66
2023-05-22T08:02:11.056Z,101426.38
2023-05-22T08:04:37.830Z,101427.22
2023-05-22T08:07:04.647Z,101433.59
2023-05-22T08:09:31.282Z,101429.78
2023-05-22T08:11:57.813Z,101426.19
2023-05-22T08:14:24.433Z,101429.78
2023-05-22T08:16:51.202Z,101436.16
2023-05-22T08:19:17.927Z,101427.88
2023-05-22T08:21:44.645Z,101432.53
2023-05-22T08:24:11.349Z,101425.13
2023-05-22T08:26:38.799Z,101426.00
2023-05-22T08:29:05.352Z,101429.59
2023-05-22T08:31:34.362Z,101427.69
2023-05-22T08:34:02.746Z,101434.03
2023-05-22T08:36:31.610Z,101429.41
2023-05-22T08:38:58.302Z,101426.66
2023-05-22T08:41:24.924Z,101424.75
2023-05-22T08:43:51.522Z,101425.59
2023-05-22T08:46:20.026Z,101420.94
2023-05-22T08:48:47.854Z,101416.28
2023-05-22T08:51:19.692Z,101417.16
2023-05-22T08:53:48.460Z,101420.94
2023-05-22T08:56:15.319Z,101419.03
2023-05-22T08:58:42.310Z,101419.91
2023-05-22T09:01:08.975Z,101418.00
2023-05-22T09:03:36.806Z,101423.50
2023-05-22T09:06:04.588Z,101421.59
2023-05-22T09:08:31.232Z,101416.94
2023-05-22T09:10:57.964Z,101417.81
2023-05-22T09:13:29.636Z,101421.41
2023-05-22T09:16:07.493Z,101421.41
2023-05-22T09:18:34.077Z,101425.22
2023-05-22T09:21:02.616Z,101427.75
2023-05-22T09:23:29.591Z,101426.91
2023-05-22T09:25:57.385Z,101415.91
2023-05-22T09:28:24.757Z,101417.59
2023-05-22T09:30:53.544Z,101411.25
2023-05-22T09:33:21.008Z,101415.72
2023-05-22T09:35:48.338Z,101415.91
2023-05-22T09:38:15.259Z,101407.66
2023-05-22T09:40:42.168Z,101406.59
2023-05-22T09:43:12.745Z,101411.25
2023-05-22T09:45:39.642Z,101409.34
2023-05-22T09:48:08.660Z,101413.81
2023-05-22T09:50:40.160Z,101402.78
2023-05-22T09:53:08.905Z,101412.94
2023-05-22T09:55:36.715Z,101408.31
2023-05-22T09:58:04.858Z,101402.78
2023-05-22T10:00:34.196Z,101406.22
2023-05-22T10:03:11.955Z,101398.16
2023-05-22T10:05:43.577Z,101404.50
2023-05-22T10:08:21.132Z,101404.50
2023-05-22T10:10:52.121Z,101397.28
2023-05-22T10:13:20.408Z,101398.16
2023-05-22T10:15:48.838Z,101395.41
2023-05-22T10:18:16.613Z,101393.50
2023-05-22T10:20:44.393Z,101385.25
2023-05-22T10:23:11.734Z,101392.44
2023-05-22T10:25:38.484Z,101394.34
2023-05-22T10:28:06.016Z,101395.19
2023-05-22T10:30:36.026Z,101390.53
2023-05-22T10:33:36.682Z,101389.69
2023-05-22T10:36:08.649Z,101387.53
2023-05-22T10:38:53.094Z,101388.38
2023-05-22T10:41:19.971Z,101393.03
2023-05-22T10:43:49.126Z,101391.78
2023-05-22T10:46:15.781Z,101381.63
2023-05-22T10:48:49.501Z,101391.59
2023-05-22T10:51:20.914Z,101384.19
2023-05-22T10:53:55.264Z,101381.44
2023-05-22T10:56:25.150Z,101375.94
2023-05-22T10:58:56.853Z,101379.53
2023-05-22T11:01:26.140Z,101378.47
2023-05-22T11:04:04.450Z,101386.75
2023-05-22T11:06:47.900Z,101373.84
2023-05-22T11:09:21.826Z,101378.47
2023-05-22T11:12:17.436Z,101372.97
2023-05-22T11:14:49.908Z,101380.38
2023-05-22T11:17:30.577Z,101372.78
2023-05-22T11:20:05.915Z,101374.88
2023-05-22T11:22:39.766Z,101366.44
2023-05-22T11:25:17.904Z,101367.28
2023-05-22T11:27:46.504Z,101363.88
2023-05-22T11:30:14.521Z,101364.53
2023-05-22T11:32:44.904Z,101370.88
2023-05-22T11:35:20.296Z,101364.38
2023-05-22T11:37:47.922Z,101361.59
2023-05-22T11:40:21.187Z,101360.56
2023-05-22T11:42:48.356Z,101367.97
2023-05-22T11:45:15.157Z,101358.66
2023-05-22T11:47:42.096Z,101361.41
2023-05-22T11:50:09.888Z,101359.50
2023-05-22T11:52:38.051Z,101357.59
2023-05-22T11:55:05.598Z,101357.59
2023-05-22T11:57:32.603Z,101359.50
2023-05-22T11:59:59.233Z,101358.47
2023-05-22T12:02:26.717Z,101351.91
2023-05-22T12:04:57.372Z,101351.72
2023-05-22T12:07:26.539Z,101349.16
2023-05-22T12:09:56.144Z,101350.84
2023-05-22T12:12:22.963Z,101352.56
2023-05-22T12:14:49.944Z,101350.66
2023-05-22T12:17:17.522Z,101351.50
2023-05-22T12:19:47.121Z,101345.16
2023-05-22T12:22:14.438Z,101346.00
2023-05-22T12:24:42.476Z,101344.09
2023-05-22T12:27:12.753Z,101347.72
2023-05-22T12:29:39.834Z,101343.06
2023-05-22T12:32:11.583Z,101347.50
2023-05-22T12:34:49.031Z,101342.84
2023-05-22T12:37:25.017Z,101342.00
2023-05-22T12:39:58.343Z,101342.00
2023-05-22T12:42:26.444Z,101331.84
2023-05-22T12:44:54.664Z,101338.41
2023-05-22T12:47:22.380Z,101333.75
2023-05-22T12:49:49.128Z,101333.53
2023-05-22T12:52:15.737Z,101339.06
2023-05-22T12:54:42.470Z,101331.66
2023-05-22T12:57:09.115Z,101330.59
2023-05-22T12:59:37.108Z,101336.09
2023-05-22T13:02:05.433Z,101329.53
2023-05-22T13:04:32.339Z,101331.25
2023-05-22T13:06:58.913Z,101330.19
2023-05-22T13:09:25.554Z,101329.34
2023-05-22T13:11:52.163Z,101324.69
2023-05-22T13:14:18.749Z,101325.53
2023-05-22T13:16:45.289Z,101320.03
2023-05-22T13:19:11.879Z,101317.94
2023-05-22T13:21:38.528Z,101315.19
2023-05-22T13:24:05.379Z,101319.84
2023-05-22T13:26:31.938Z,101318.78
2023-05-22T13:28:58.550Z,101320.47
2023-05-22T13:31:25.406Z,101320.47
2023-05-22T13:33:52.135Z,101317.72
2023-05-22T13:36:18.891Z,101304.81
2023-05-22T13:38:45.407Z,101318.38
2023-05-22T13:41:12.021Z,101314.78
2023-05-22T13:43:38.608Z,101315.63
2023-05-22T13:46:05.209Z,101316.47
2023-05-22T13:48:31.868Z,101316.28
2023-05-22T13:50:58.413Z,101315.44
2023-05-22T13:53:28.122Z,101311.63
2023-05-22T13:55:55.251Z,101308.03
2023-05-22T13:58:21.849Z,101312.47
2023-05-22T14:00:48.459Z,101312.28
2023-05-22T14:03:17.719Z,101312.28
2023-05-22T14:05:47.818Z,101313.13
2023-05-22T14:08:14.479Z,101318.63
2023-05-22T14:10:41.968Z,101313.97
2023-05-22T14:13:08.779Z,101315.69
2023-05-22T14:15:35.727Z,101319.28
2023-05-22T14:18:02.465Z,101319.94
2023-05-22T14:20:29.089Z,101322.69
2023-05-22T14:22:57.720Z,101328.88
2023-05-22T14:25:26.179Z,101325.06
2023-05-22T14:27:52.959Z,101323.16
2023-05-22T14:30:19.519Z,101328.47
2023-05-22T14:32:46.852Z,101326.56
2023-05-22T14:35:13.705Z,101326.56
2023-05-22T14:37:40.400Z,101326.38
2023-05-22T14:40:07.752Z,101336.34
2023-05-22T14:42:34.833Z,101330.81
2023-05-22T14:45:01.396Z,101320.66
2023-05-22T14:47:27.902Z,101327.03
2023-05-22T14:49:57.587Z,101323.41
2023-05-22T14:52:29.563Z,101327.88
2023-05-22T14:54:56.071Z,101328.72
2023-05-22T14:57:23.783Z,101330.44
2023-05-22T14:59:50.828Z,101335.94
2023-05-22T15:02:17.391Z,101330.44
2023-05-22T15:04:45.861Z,101334.03
2023-05-22T15:07:12.693Z,101339.53
2023-05-22T15:09:39.184Z,101346.94
2023-05-22T15:12:06.154Z,101348.66
2023-05-22T15:14:32.715Z,101349.50
2023-05-22T15:16:59.943Z,101350.56
2023-05-22T15:19:26.617Z,101355.88
2023-05-22T15:21:54.648Z,101360.53
2023-05-22T15:24:22.091Z,101366.03
2023-05-22T15:26:48.664Z,101366.03
2023-05-22T15:29:15.414Z,101370.69
2023-05-22T15:31:42.009Z,101376.19
2023-05-22T15:34:08.578Z,101381.69
2023-05-22T15:36:36.510Z,101376.19
2023-05-22T15:39:03.530Z,101379.16
2023-05-22T15:41:30.033Z,101384.66
2023-05-22T15:43:56.559Z,101391.22
2023-05-22T15:46:23.228Z,101384.84
2023-05-22T15:48:50.058Z,101395.03
2023-05-22T15:51:16.592Z,101396.06
2023-05-22T15:53:44.401Z,101396.94
2023-05-22T15:56:10.935Z,101384.22
2023-05-22T15:58:37.547Z,101377.84
2023-05-22T16:01:04.154Z,101390.75
2023-05-22T16:03:30.902Z,101389.91
2023-05-22T16:05:57.662Z,101394.38
2023-05-22T16:08:24.248Z,101388.00
2023-05-22T16:10:50.757Z,101383.56
2023-05-22T16:13:17.428Z,101385.47
2023-05-22T16:15:44.125Z,101388.41
2023-05-22T16:18:11.603Z,101384.59
2023-05-22T16:20:38.648Z,101383.75
2023-05-22T16:23:05.254Z,101391.16
2023-05-22T16:25:31.793Z,101393.91
2023-05-22T16:27:58.318Z,101389.25
2023-05-22T16:30:24.813Z,101385.66
2023-05-22T16:32:51.487Z,101391.16
2023-05-22T16:35:19.583Z,101372.94
2023-05-22T16:37:46.247Z,101382.06
2023-05-22T16:40:12.881Z,101371.03
2023-05-22T16:42:39.460Z,101390.31
2023-05-22T16:45:06.630Z,101410.63
2023-05-22T16:47:33.388Z,101415.09
2023-05-22T16:50:00.373Z,101406.84
2023-05-22T16:52:26.991Z,101405.78
2023-05-22T16:54:53.716Z,101401.97
2023-05-22T16:57:20.417Z,101400.72
2023-05-22T16:59:47.175Z,101398.63
2023-05-22T17:02:14.082Z,101401.19
2023-05-22T17:04:41.076Z,101401.84
2023-05-22T17:07:07.791Z,101408.00
2023-05-22T17:09:34.634Z,101416.06
2023-05-22T17:12:01.430Z,101423.72
2023-05-22T17:14:27.915Z,101418.88
2023-05-22T17:16:55.783Z,101411.91
2023-05-22T17:19:22.941Z,101412.16
2023-05-22T17:21:49.667Z,101424.53
2023-05-22T17:24:16.342Z,101423.84
2023-05-22T17:26:48.062Z,101429.75
2023-05-22T17:29:14.720Z,101422.66
2023-05-22T17:31:41.342Z,101426.41
2023-05-22T17:34:07.957Z,101435.19
2023-05-22T17:36:34.473Z,101439.47
2023-05-22T17:39:01.193Z,101446.78
2023-05-22T17:41:27.900Z,101438.06
2023-05-22T17:43:57.025Z,101453.38
2023-05-22T17:46:23.714Z,101452.28
2023-05-22T17:48:50.213Z,101449.97
2023-05-22T17:51:16.810Z,101456.56
2023-05-22T17:53:43.343Z,101455.72
2023-05-22T17:56:10.077Z,101462.50
2023-05-22T17:58:36.580Z,101455.72
2023-05-22T18:01:03.169Z,101470.16
2023-05-22T18:03:30.527Z,101467.31
2023-05-22T18:05:57.263Z,101469.63
2023-05-22T18:08:23.842Z,101476.81
2023-05-22T18:10:50.620Z,101472.75
2023-05-22T18:13:19.219Z,101472.31
2023-05-22T18:15:46.130Z,101470.78
2023-05-22T18:18:13.175Z,101478.38
2023-05-22T18:20:40.112Z,101483.00
2023-05-22T18:23:06.912Z,101483.78
2023-05-22T18:25:33.557Z,101485.44
2023-05-22T18:28:00.136Z,101494.34
2023-05-22T18:30:26.687Z,101490.50
2023-05-22T18:32:53.300Z,101496.63
2023-05-22T18:35:19.941Z,101495.31
2023-05-22T18:37:46.482Z,101491.25
2023-05-22T18:40:13.278Z,101494.41
2023-05-22T18:42:39.796Z,101500.34
2023-05-22T18:45:07.105Z,101506.25
2023-05-22T18:47:33.761Z,101512.19
2023-05-22T18:50:00.444Z,101513.63
2023-05-22T18:52:27.040Z,101512.13
2023-05-22T18:54:53.570Z,101519.75
2023-05-22T18:57:20.143Z,101513.75
2023-05-22T18:59:47.072Z,101516.91
2023-05-22T19:02:16.417Z,101516.25
2023-05-22T19:04:43.736Z,101516.66
2023-05-22T19:07:10.346Z,101520.66
2023-05-22T19:09:37.381Z,101516.41
2023-05-22T19:12:05.399Z,101524.88
2023-05-22T19:14:32.111Z,101526.13
2023-05-22T19:17:01.416Z,101533.72
2023-05-22T19:19:28.018Z,101533.91
2023-05-22T19:21:54.732Z,101538.75
2023-05-22T19:24:22.023Z,101542.75
2023-05-22T19:26:48.571Z,101544.88
2023-05-22T19:29:15.517Z,101546.97
2023-05-22T19:31:44.232Z,101550.13
2023-05-22T19:34:10.865Z,101552.00
2023-05-22T19:36:37.438Z,101550.50
2023-05-22T19:39:04.081Z,101557.06
2023-05-22T19:41:30.631Z,101560.88
2023-05-22T19:43:57.479Z,101564.88
2023-05-22T19:46:24.100Z,101562.13
2023-05-22T19:48:50.767Z,101558.72
2023-05-22T19:51:17.274Z,101555.28
2023-05-22T19:53:44.342Z,101559.09
2023-05-22T19:56:11.483Z,101568.41
2023-05-22T19:58:38.105Z,101572.22
2023-05-22T20:01:04.660Z,101569.47
2023-05-22T20:03:31.305Z,101576.22
2023-05-22T20:05:58.049Z,101577.25
2023-05-22T20:08:25.460Z,101585.53
2023-05-22T20:10:52.357Z,101582.97
2023-05-22T20:13:18.933Z,101599.50
2023-05-22T20:15:47.518Z,101588.66
2023-05-22T20:18:14.466Z,101593.31
2023-05-22T20:20:41.136Z,101601.59
2023-05-22T20:23:08.009Z,101606.25
2023-05-22T20:25:34.681Z,101607.28
2023-05-22T20:28:03.622Z,101606.44
2023-05-22T20:30:30.938Z,101614.91
2023-05-22T20:32:57.514Z,101612.16
2023-05-22T20:35:26.368Z,101617.66
2023-05-22T20:37:53.380Z,101617.84
2023-05-22T20:40:20.173Z,101625.25
2023-05-22T20:42:47.510Z,101638.84
2023-05-22T20:45:15.373Z,101642.63
2023-05-22T20:47:43.417Z,101641.13
2023-05-22T20:50:11.215Z,101642.13
2023-05-22T20:52:37.865Z,101645.94
2023-05-22T20:55:07.817Z,101649.53
2023-05-22T20:57:34.759Z,101655.06
2023-05-22T21:00:01.509Z,101653.34
2023-05-22T21:02:28.186Z,101654.19
2023-05-22T21:04:54.844Z,101658.00
2023-05-22T21:07:21.607Z,101659.03
2023-05-22T21:09:48.143Z,101659.91
2023-05-22T21:12:14.731Z,101659.03
2023-05-22T21:14:43.454Z,101664.56
2023-05-22T21:17:10.454Z,101659.91
2023-05-22T21:19:37.056Z,101665.59
2023-05-22T21:22:03.765Z,101661.13
2023-05-22T21:24:32.081Z,101661.13
2023-05-22T21:26:58.960Z,101662.00
2023-05-22T21:29:25.619Z,101663.88
2023-05-22T21:31:52.258Z,101670.44
2023-05-22T21:34:21.962Z,101673.19
2023-05-22T21:36:50.454Z,101678.69
2023-05-22T21:39:16.989Z,101675.94
2023-05-22T21:41:43.536Z,101677.84
2023-05-22T21:44:10.065Z,101678.91
2023-05-22T21:46:37.114Z,101689.91
2023-05-22T21:49:05.960Z,101696.28
2023-05-22T21:51:32.594Z,101694.56
2023-05-22T21:53:59.224Z,101696.28
2023-05-22T21:56:26.973Z,101699.22
2023-05-22T21:58:53.560Z,101696.47
2023-05-22T22:01:20.244Z,101692.84
2023-05-22T22:03:46.978Z,101696.47
2023-05-22T22:06:13.739Z,101690.94
2023-05-22T22:08:40.479Z,101697.50
2023-05-22T22:11:07.101Z,101702.16
2023-05-22T22:13:33.918Z,101704.06
2023-05-22T22:16:00.491Z,101702.16
2023-05-22T22:18:27.077Z,101701.31
2023-05-22T22:20:54.109Z,101709.56
2023-05-22T22:23:21.919Z,101702.34
2023-05-22T22:25:49.149Z,101692.19
2023-05-22T22:28:15.896Z,101692.19
2023-05-22T22:30:42.525Z,101697.69
2023-05-22T22:33:09.117Z,101703.22
2023-05-22T22:35:36.154Z,101709.75
2023-05-22T22:38:02.839Z,101711.66
2023-05-22T22:40:29.332Z,101708.91
2023-05-22T22:42:55.904Z,101709.75
2023-05-22T22:45:22.445Z,101721.81
2023-05-22T22:47:48.937Z,101725.63
2023-05-22T22:50:16.076Z,101725.63
2023-05-22T22:52:45.356Z,101736.63
2023-05-22T22:55:12.309Z,101742.13
2023-05-22T22:57:39.090Z,101738.53
2023-05-22T23:00:06.598Z,101731.13
2023-05-22T23:02:33.287Z,101733.03
2023-05-22T23:05:00.329Z,101734.91
2023-05-22T23:07:28.044Z,101734.06
2023-05-22T23:09:54.643Z,101737.84
2023-05-22T23:12:21.211Z,101741.47
2023-05-22T23:14:47.797Z,101734.06
2023-05-22T23:17:14.323Z,101735.09
2023-05-22T23:19:40.879Z,101734.25
2023-05-22T23:22:07.719Z,101738.91
2023-05-22T23:24:34.300Z,101735.09
2023-05-22T23:27:01.391Z,101740.81
2023-05-22T23:29:28.019Z,101732.53
2023-05-22T23:31:55.433Z,101727.03
2023-05-22T23:34:22.080Z,101722.38
2023-05-22T23:36:48.649Z,101722.38
2023-05-22T23:39:15.166Z,101719.81
2023-05-22T23:41:42.212Z,101726.19
2023-05-22T23:44:08.820Z,101725.34
2023-05-22T23:46:37.163Z,101726.38
2023-05-22T23:49:03.767Z,101728.28
2023-05-22T23:51:31.263Z,101733.59
2023-05-22T23:53:57.848Z,101741.00
2023-05-22T23:56:24.392Z,101736.34
2023-05-22T23:58:50.996Z,101737.38
